sensor_id;sensor_type;location;lat;lon;timestamp;P1;durP1;ratioP1;P2;durP2;ratioP2
26598;SDS011;14240;51.064;16.612;2023-04-25T00:01:11;4.22;;;2.15;;
26598;SDS011;14240;51.064;16.612;2023-04-25T00:03:38;3.47;;;2.58;;
26598;SDS011;14240;51.064;16.612;2023-04-25T00:06:05;4.88;;;3.03;;
26598;SDS011;14240;51.064;16.612;2023-04-25T00:08:31;3.20;;;2.15;;
26598;SDS011;14240;51.064;16.612;2023-04-25T00:10:57;5.25;;;2.83;;
26598;SDS011;14240;51.064;16.612;2023-04-25T00:13:24;4.20;;;2.80;;
26598;SDS011;14240;51.064;16.612;2023-04-25T00:15:51;6.05;;;3.17;;
26598;SDS011;14240;51.064;16.612;2023-04-25T00:18:18;5.05;;;2.92;;
26598;SDS011;14240;51.064;16.612;2023-04-25T00:20:47;4.82;;;3.30;;
26598;SDS011;14240;51.064;16.612;2023-04-25T00:23:13;8.30;;;3.78;;
26598;SDS011;14240;51.064;16.612;2023-04-25T00:25:46;7.85;;;3.58;;
26598;SDS011;14240;51.064;16.612;2023-04-25T00:28:13;7.22;;;3.47;;
26598;SDS011;14240;51.064;16.612;2023-04-25T00:30:40;8.15;;;4.15;;
26598;SDS011;14240;51.064;16.612;2023-04-25T00:33:07;9.68;;;3.70;;
26598;SDS011;14240;51.064;16.612;2023-04-25T00:35:33;6.35;;;3.60;;
26598;SDS011;14240;51.064;16.612;2023-04-25T00:37:59;8.82;;;4.53;;
26598;SDS011;14240;51.064;16.612;2023-04-25T00:40:25;7.88;;;3.90;;
26598;SDS011;14240;51.064;16.612;2023-04-25T00:42:51;9.40;;;4.72;;
26598;SDS011;14240;51.064;16.612;2023-04-25T00:45:18;9.57;;;5.22;;
26598;SDS011;14240;51.064;16.612;2023-04-25T00:47:44;8.98;;;5.07;;
26598;SDS011;14240;51.064;16.612;2023-04-25T00:50:10;6.10;;;4.10;;
26598;SDS011;14240;51.064;16.612;2023-04-25T00:52:37;10.38;;;5.43;;
26598;SDS011;14240;51.064;16.612;2023-04-25T00:55:05;10.77;;;4.85;;
26598;SDS011;14240;51.064;16.612;2023-04-25T00:57:32;7.95;;;3.97;;
26598;SDS011;14240;51.064;16.612;2023-04-25T00:59:58;7.72;;;3.75;;
26598;SDS011;14240;51.064;16.612;2023-04-25T01:02:24;7.05;;;4.57;;
26598;SDS011;14240;51.064;16.612;2023-04-25T01:04:52;11.05;;;4.38;;
26598;SDS011;14240;51.064;16.612;2023-04-25T01:07:17;7.13;;;3.65;;
26598;SDS011;14240;51.064;16.612;2023-04-25T01:09:43;9.77;;;4.35;;
26598;SDS011;14240;51.064;16.612;2023-04-25T01:12:09;5.72;;;3.65;;
26598;SDS011;14240;51.064;16.612;2023-04-25T01:14:35;6.10;;;4.00;;
26598;SDS011;14240;51.064;16.612;2023-04-25T01:17:01;8.02;;;4.63;;
26598;SDS011;14240;51.064;16.612;2023-04-25T01:19:27;12.10;;;4.30;;
26598;SDS011;14240;51.064;16.612;2023-04-25T01:21:53;6.82;;;4.32;;
26598;SDS011;14240;51.064;16.612;2023-04-25T01:24:19;8.27;;;4.18;;
26598;SDS011;14240;51.064;16.612;2023-04-25T01:26:46;10.07;;;5.03;;
26598;SDS011;14240;51.064;16.612;2023-04-25T01:29:15;6.28;;;4.18;;
26598;SDS011;14240;51.064;16.612;2023-04-25T01:31:42;9.85;;;5.40;;
26598;SDS011;14240;51.064;16.612;2023-04-25T01:34:09;8.40;;;4.40;;
26598;SDS011;14240;51.064;16.612;2023-04-25T01:36:35;6.78;;;4.05;;
26598;SDS011;14240;51.064;16.612;2023-04-25T01:39:01;9.93;;;4.78;;
26598;SDS011;14240;51.064;16.612;2023-04-25T01:41:27;8.18;;;4.68;;
26598;SDS011;14240;51.064;16.612;2023-04-25T01:43:53;9.02;;;5.15;;
26598;SDS011;14240;51.064;16.612;2023-04-25T01:46:19;8.63;;;4.55;;
26598;SDS011;14240;51.064;16.612;2023-04-25T01:48:45;8.68;;;5.13;;
26598;SDS011;14240;51.064;16.612;2023-04-25T01:51:11;6.55;;;4.63;;
26598;SDS011;14240;51.064;16.612;2023-04-25T01:53:38;8.88;;;5.35;;
26598;SDS011;14240;51.064;16.612;2023-04-25T01:56:04;8.88;;;5.07;;
26598;SDS011;14240;51.064;16.612;2023-04-25T01:58:30;8.35;;;4.47;;
26598;SDS011;14240;51.064;16.612;2023-04-25T02:00:56;7.32;;;4.78;;
26598;SDS011;14240;51.064;16.612;2023-04-25T02:03:22;11.13;;;6.18;;
26598;SDS011;14240;51.064;16.612;2023-04-25T02:05:47;8.00;;;5.18;;
26598;SDS011;14240;51.064;16.612;2023-04-25T02:08:13;11.32;;;5.35;;
26598;SDS011;14240;51.064;16.612;2023-04-25T02:10:39;11.52;;;5.53;;
26598;SDS011;14240;51.064;16.612;2023-04-25T02:13:05;7.43;;;5.22;;
26598;SDS011;14240;51.064;16.612;2023-04-25T02:15:31;7.95;;;4.40;;
26598;SDS011;14240;51.064;16.612;2023-04-25T02:17:57;6.75;;;4.38;;
26598;SDS011;14240;51.064;16.612;2023-04-25T02:20:23;11.32;;;5.45;;
26598;SDS011;14240;51.064;16.612;2023-04-25T02:22:50;9.90;;;5.50;;
26598;SDS011;14240;51.064;16.612;2023-04-25T02:25:17;10.65;;;5.95;;
26598;SDS011;14240;51.064;16.612;2023-04-25T02:27:44;9.07;;;5.95;;
26598;SDS011;14240;51.064;16.612;2023-04-25T02:30:11;11.38;;;6.30;;
26598;SDS011;14240;51.064;16.612;2023-04-25T02:32:38;8.32;;;5.20;;
26598;SDS011;14240;51.064;16.612;2023-04-25T02:35:04;11.98;;;5.20;;
26598;SDS011;14240;51.064;16.612;2023-04-25T02:37:31;17.50;;;7.30;;
26598;SDS011;14240;51.064;16.612;2023-04-25T02:39:57;14.70;;;7.72;;
26598;SDS011;14240;51.064;16.612;2023-04-25T02:42:23;11.07;;;6.55;;
26598;SDS011;14240;51.064;16.612;2023-04-25T02:44:49;11.63;;;5.93;;
26598;SDS011;14240;51.064;16.612;2023-04-25T02:47:15;14.70;;;6.30;;
26598;SDS011;14240;51.064;16.612;2023-04-25T02:49:40;15.27;;;5.75;;
26598;SDS011;14240;51.064;16.612;2023-04-25T02:52:07;9.57;;;5.68;;
26598;SDS011;14240;51.064;16.612;2023-04-25T02:54:32;15.73;;;7.20;;
26598;SDS011;14240;51.064;16.612;2023-04-25T02:56:58;13.38;;;6.97;;
26598;SDS011;14240;51.064;16.612;2023-04-25T02:59:24;11.27;;;6.10;;
26598;SDS011;14240;51.064;16.612;2023-04-25T03:01:49;13.07;;;6.97;;
26598;SDS011;14240;51.064;16.612;2023-04-25T03:04:15;19.83;;;9.15;;
26598;SDS011;14240;51.064;16.612;2023-04-25T03:06:41;12.88;;;7.30;;
26598;SDS011;14240;51.064;16.612;2023-04-25T03:09:07;13.73;;;7.45;;
26598;SDS011;14240;51.064;16.612;2023-04-25T03:11:32;11.63;;;6.43;;
26598;SDS011;14240;51.064;16.612;2023-04-25T03:13:58;12.90;;;6.85;;
26598;SDS011;14240;51.064;16.612;2023-04-25T03:16:24;15.27;;;7.05;;
26598;SDS011;14240;51.064;16.612;2023-04-25T03:18:50;16.27;;;7.30;;
26598;SDS011;14240;51.064;16.612;2023-04-25T03:21:16;10.88;;;7.25;;
26598;SDS011;14240;51.064;16.612;2023-04-25T03:23:42;12.77;;;6.13;;
26598;SDS011;14240;51.064;16.612;2023-04-25T03:26:07;13.18;;;7.10;;
26598;SDS011;14240;51.064;16.612;2023-04-25T03:28:33;12.65;;;6.68;;
26598;SDS011;14240;51.064;16.612;2023-04-25T03:30:59;18.08;;;7.20;;
26598;SDS011;14240;51.064;16.612;2023-04-25T03:33:25;11.98;;;6.65;;
26598;SDS011;14240;51.064;16.612;2023-04-25T03:35:50;11.80;;;7.53;;
26598;SDS011;14240;51.064;16.612;2023-04-25T03:38:17;10.27;;;6.78;;
26598;SDS011;14240;51.064;16.612;2023-04-25T03:40:42;16.02;;;7.70;;
26598;SDS011;14240;51.064;16.612;2023-04-25T03:43:08;12.23;;;6.63;;
26598;SDS011;14240;51.064;16.612;2023-04-25T03:45:34;16.40;;;8.05;;
26598;SDS011;14240;51.064;16.612;2023-04-25T03:47:59;13.98;;;6.85;;
26598;SDS011;14240;51.064;16.612;2023-04-25T03:50:25;14.55;;;8.02;;
26598;SDS011;14240;51.064;16.612;2023-04-25T03:52:51;15.75;;;7.57;;
26598;SDS011;14240;51.064;16.612;2023-04-25T03:55:16;12.75;;;6.78;;
26598;SDS011;14240;51.064;16.612;2023-04-25T03:57:43;14.88;;;6.55;;
26598;SDS011;14240;51.064;16.612;2023-04-25T04:00:09;13.07;;;6.60;;
26598;SDS011;14240;51.064;16.612;2023-04-25T04:02:35;11.25;;;6.63;;
26598;SDS011;14240;51.064;16.612;2023-04-25T04:05:02;15.32;;;6.30;;
26598;SDS011;14240;51.064;16.612;2023-04-25T04:07:28;12.57;;;6.15;;
26598;SDS011;14240;51.064;16.612;2023-04-25T04:09:54;12.60;;;7.38;;
26598;SDS011;14240;51.064;16.612;2023-04-25T04:12:21;13.75;;;7.30;;
26598;SDS011;14240;51.064;16.612;2023-04-25T04:14:47;15.70;;;7.97;;
26598;SDS011;14240;51.064;16.612;2023-04-25T04:17:12;12.90;;;7.07;;
26598;SDS011;14240;51.064;16.612;2023-04-25T04:19:38;16.55;;;7.70;;
26598;SDS011;14240;51.064;16.612;2023-04-25T04:22:04;13.75;;;7.18;;
26598;SDS011;14240;51.064;16.612;2023-04-25T04:24:29;15.82;;;7.88;;
26598;SDS011;14240;51.064;16.612;2023-04-25T04:26:55;17.83;;;7.60;;
26598;SDS011;14240;51.064;16.612;2023-04-25T04:29:21;13.73;;;7.60;;
26598;SDS011;14240;51.064;16.612;2023-04-25T04:31:48;15.73;;;8.30;;
26598;SDS011;14240;51.064;16.612;2023-04-25T04:34:14;21.63;;;9.90;;
26598;SDS011;14240;51.064;16.612;2023-04-25T04:36:41;13.75;;;8.52;;
26598;SDS011;14240;51.064;16.612;2023-04-25T04:39:07;13.63;;;8.43;;
26598;SDS011;14240;51.064;16.612;2023-04-25T04:41:34;12.18;;;7.72;;
26598;SDS011;14240;51.064;16.612;2023-04-25T04:43:59;13.07;;;7.28;;
26598;SDS011;14240;51.064;16.612;2023-04-25T04:46:26;14.02;;;7.25;;
26598;SDS011;14240;51.064;16.612;2023-04-25T04:48:53;13.75;;;6.40;;
26598;SDS011;14240;51.064;16.612;2023-04-25T04:51:18;13.77;;;6.13;;
26598;SDS011;14240;51.064;16.612;2023-04-25T04:53:45;9.63;;;7.28;;
26598;SDS011;14240;51.064;16.612;2023-04-25T04:56:11;21.98;;;11.85;;
26598;SDS011;14240;51.064;16.612;2023-04-25T04:58:37;37.65;;;18.75;;
26598;SDS011;14240;51.064;16.612;2023-04-25T05:01:03;16.67;;;7.45;;
26598;SDS011;14240;51.064;16.612;2023-04-25T05:03:28;10.15;;;6.60;;
26598;SDS011;14240;51.064;16.612;2023-04-25T05:05:54;8.45;;;6.00;;
26598;SDS011;14240;51.064;16.612;2023-04-25T05:08:20;10.93;;;6.68;;
26598;SDS011;14240;51.064;16.612;2023-04-25T05:10:45;15.63;;;7.25;;
26598;SDS011;14240;51.064;16.612;2023-04-25T05:13:11;10.57;;;7.13;;
26598;SDS011;14240;51.064;16.612;2023-04-25T05:15:37;13.15;;;7.32;;
26598;SDS011;14240;51.064;16.612;2023-04-25T05:18:03;17.90;;;7.80;;
26598;SDS011;14240;51.064;16.612;2023-04-25T05:20:29;17.17;;;8.80;;
26598;SDS011;14240;51.064;16.612;2023-04-25T05:22:54;23.98;;;13.23;;
26598;SDS011;14240;51.064;16.612;2023-04-25T05:25:20;25.23;;;11.77;;
26598;SDS011;14240;51.064;16.612;2023-04-25T05:27:46;33.63;;;14.80;;
26598;SDS011;14240;51.064;16.612;2023-04-25T05:30:12;20.45;;;11.23;;
26598;SDS011;14240;51.064;16.612;2023-04-25T05:32:37;27.73;;;11.30;;
26598;SDS011;14240;51.064;16.612;2023-04-25T05:35:03;32.15;;;10.43;;
26598;SDS011;14240;51.064;16.612;2023-04-25T05:37:31;21.02;;;8.82;;
26598;SDS011;14240;51.064;16.612;2023-04-25T05:39:57;13.65;;;8.35;;
26598;SDS011;14240;51.064;16.612;2023-04-25T05:42:23;12.38;;;8.73;;
26598;SDS011;14240;51.064;16.612;2023-04-25T05:44:49;23.30;;;11.15;;
26598;SDS011;14240;51.064;16.612;2023-04-25T05:47:15;15.52;;;9.43;;
26598;SDS011;14240;51.064;16.612;2023-04-25T05:49:40;31.90;;;20.00;;
26598;SDS011;14240;51.064;16.612;2023-04-25T05:52:06;40.25;;;23.90;;
26598;SDS011;14240;51.064;16.612;2023-04-25T05:54:32;21.63;;;9.40;;
26598;SDS011;14240;51.064;16.612;2023-04-25T05:56:57;13.60;;;6.60;;
26598;SDS011;14240;51.064;16.612;2023-04-25T05:59:23;12.15;;;5.88;;
26598;SDS011;14240;51.064;16.612;2023-04-25T06:01:49;13.73;;;6.05;;
26598;SDS011;14240;51.064;16.612;2023-04-25T06:04:15;9.38;;;5.47;;
26598;SDS011;14240;51.064;16.612;2023-04-25T06:06:40;13.80;;;6.43;;
26598;SDS011;14240;51.064;16.612;2023-04-25T06:09:06;9.85;;;6.85;;
26598;SDS011;14240;51.064;16.612;2023-04-25T06:11:32;15.63;;;6.82;;
26598;SDS011;14240;51.064;16.612;2023-04-25T06:13:58;11.88;;;6.20;;
26598;SDS011;14240;51.064;16.612;2023-04-25T06:16:23;10.70;;;5.57;;
26598;SDS011;14240;51.064;16.612;2023-04-25T06:18:50;7.65;;;5.78;;
26598;SDS011;14240;51.064;16.612;2023-04-25T06:21:16;9.02;;;4.90;;
26598;SDS011;14240;51.064;16.612;2023-04-25T06:23:42;9.00;;;5.72;;
26598;SDS011;14240;51.064;16.612;2023-04-25T06:26:08;15.57;;;5.72;;
26598;SDS011;14240;51.064;16.612;2023-04-25T06:28:33;12.55;;;4.97;;
26598;SDS011;14240;51.064;16.612;2023-04-25T06:30:59;12.70;;;5.50;;
26598;SDS011;14240;51.064;16.612;2023-04-25T06:33:25;8.65;;;4.78;;
26598;SDS011;14240;51.064;16.612;2023-04-25T06:35:51;9.07;;;5.15;;
26598;SDS011;14240;51.064;16.612;2023-04-25T06:38:17;6.78;;;4.28;;
26598;SDS011;14240;51.064;16.612;2023-04-25T06:40:43;9.00;;;5.20;;
26598;SDS011;14240;51.064;16.612;2023-04-25T06:43:09;8.68;;;5.38;;
26598;SDS011;14240;51.064;16.612;2023-04-25T06:45:35;7.18;;;4.63;;
26598;SDS011;14240;51.064;16.612;2023-04-25T06:48:00;7.82;;;4.35;;
26598;SDS011;14240;51.064;16.612;2023-04-25T06:50:26;9.30;;;4.57;;
26598;SDS011;14240;51.064;16.612;2023-04-25T06:52:52;9.18;;;5.75;;
26598;SDS011;14240;51.064;16.612;2023-04-25T06:55:17;8.27;;;4.60;;
26598;SDS011;14240;51.064;16.612;2023-04-25T06:57:43;9.70;;;4.80;;
26598;SDS011;14240;51.064;16.612;2023-04-25T07:00:09;9.57;;;5.07;;
26598;SDS011;14240;51.064;16.612;2023-04-25T07:02:35;7.75;;;5.13;;
26598;SDS011;14240;51.064;16.612;2023-04-25T07:05:02;9.05;;;4.80;;
26598;SDS011;14240;51.064;16.612;2023-04-25T07:07:29;6.63;;;4.43;;
26598;SDS011;14240;51.064;16.612;2023-04-25T07:09:55;8.10;;;5.32;;
26598;SDS011;14240;51.064;16.612;2023-04-25T07:12:21;11.80;;;4.78;;
26598;SDS011;14240;51.064;16.612;2023-04-25T07:14:47;6.65;;;4.22;;
26598;SDS011;14240;51.064;16.612;2023-04-25T07:17:13;8.80;;;4.63;;
26598;SDS011;14240;51.064;16.612;2023-04-25T07:19:38;8.65;;;4.95;;
26598;SDS011;14240;51.064;16.612;2023-04-25T07:22:05;9.15;;;5.20;;
26598;SDS011;14240;51.064;16.612;2023-04-25T07:24:31;6.78;;;4.90;;
26598;SDS011;14240;51.064;16.612;2023-04-25T07:26:57;10.15;;;5.20;;
26598;SDS011;14240;51.064;16.612;2023-04-25T07:29:23;10.45;;;5.40;;
26598;SDS011;14240;51.064;16.612;2023-04-25T07:31:49;10.50;;;5.75;;
26598;SDS011;14240;51.064;16.612;2023-04-25T07:34:15;11.95;;;6.30;;
26598;SDS011;14240;51.064;16.612;2023-04-25T07:36:41;8.15;;;5.68;;
26598;SDS011;14240;51.064;16.612;2023-04-25T07:39:07;12.77;;;6.28;;
26598;SDS011;14240;51.064;16.612;2023-04-25T07:41:34;10.90;;;6.47;;
26598;SDS011;14240;51.064;16.612;2023-04-25T07:44:00;13.00;;;6.13;;
26598;SDS011;14240;51.064;16.612;2023-04-25T07:46:25;11.18;;;6.32;;
26598;SDS011;14240;51.064;16.612;2023-04-25T07:48:51;9.05;;;6.75;;
26598;SDS011;14240;51.064;16.612;2023-04-25T07:51:17;10.82;;;6.38;;
26598;SDS011;14240;51.064;16.612;2023-04-25T07:53:45;11.35;;;6.85;;
26598;SDS011;14240;51.064;16.612;2023-04-25T07:56:11;9.23;;;6.35;;
26598;SDS011;14240;51.064;16.612;2023-04-25T07:58:39;9.77;;;6.20;;
26598;SDS011;14240;51.064;16.612;2023-04-25T08:01:05;12.65;;;6.30;;
26598;SDS011;14240;51.064;16.612;2023-04-25T08:03:31;10.27;;;5.93;;
26598;SDS011;14240;51.064;16.612;2023-04-25T08:05:56;9.57;;;5.30;;
26598;SDS011;14240;51.064;16.612;2023-04-25T08:08:22;8.77;;;5.22;;
26598;SDS011;14240;51.064;16.612;2023-04-25T08:10:48;10.85;;;6.03;;
26598;SDS011;14240;51.064;16.612;2023-04-25T08:13:16;12.02;;;5.38;;
26598;SDS011;14240;51.064;16.612;2023-04-25T08:15:42;10.00;;;5.20;;
26598;SDS011;14240;51.064;16.612;2023-04-25T08:18:10;8.85;;;5.30;;
26598;SDS011;14240;51.064;16.612;2023-04-25T08:20:36;11.38;;;6.40;;
26598;SDS011;14240;51.064;16.612;2023-04-25T08:23:02;10.93;;;7.72;;
26598;SDS011;14240;51.064;16.612;2023-04-25T08:25:27;11.50;;;6.22;;
26598;SDS011;14240;51.064;16.612;2023-04-25T08:27:53;12.10;;;5.90;;
26598;SDS011;14240;51.064;16.612;2023-04-25T08:30:19;11.95;;;6.05;;
26598;SDS011;14240;51.064;16.612;2023-04-25T08:32:46;8.05;;;5.32;;
26598;SDS011;14240;51.064;16.612;2023-04-25T08:35:11;9.27;;;5.57;;
26598;SDS011;14240;51.064;16.612;2023-04-25T08:37:37;10.02;;;4.90;;
26598;SDS011;14240;51.064;16.612;2023-04-25T08:40:03;13.13;;;5.57;;
26598;SDS011;14240;51.064;16.612;2023-04-25T08:42:32;10.05;;;5.13;;
26598;SDS011;14240;51.064;16.612;2023-04-25T08:47:29;9.27;;;5.47;;
26598;SDS011;14240;51.064;16.612;2023-04-25T08:49:57;6.53;;;5.63;;
26598;SDS011;14240;51.064;16.612;2023-04-25T08:52:24;11.25;;;5.70;;
26598;SDS011;14240;51.064;16.612;2023-04-25T08:54:55;11.05;;;5.80;;
26598;SDS011;14240;51.064;16.612;2023-04-25T08:57:22;9.45;;;6.13;;
26598;SDS011;14240;51.064;16.612;2023-04-25T08:59:49;10.77;;;6.13;;
26598;SDS011;14240;51.064;16.612;2023-04-25T09:02:16;10.88;;;6.93;;
26598;SDS011;14240;51.064;16.612;2023-04-25T09:04:44;8.07;;;5.47;;
26598;SDS011;14240;51.064;16.612;2023-04-25T09:07:10;9.35;;;5.15;;
26598;SDS011;14240;51.064;16.612;2023-04-25T09:09:36;7.95;;;4.00;;
26598;SDS011;14240;51.064;16.612;2023-04-25T09:12:02;8.90;;;3.83;;
26598;SDS011;14240;51.064;16.612;2023-04-25T09:14:28;11.48;;;4.38;;
26598;SDS011;14240;51.064;16.612;2023-04-25T09:19:27;6.05;;;2.70;;
26598;SDS011;14240;51.064;16.612;2023-04-25T09:21:58;6.90;;;3.15;;
26598;SDS011;14240;51.064;16.612;2023-04-25T09:24:32;3.33;;;2.33;;
26598;SDS011;14240;51.064;16.612;2023-04-25T09:27:03;4.33;;;2.90;;
26598;SDS011;14240;51.064;16.612;2023-04-25T09:29:33;5.68;;;3.20;;
26598;SDS011;14240;51.064;16.612;2023-04-25T09:34:47;7.13;;;3.05;;
26598;SDS011;14240;51.064;16.612;2023-04-25T09:37:21;4.82;;;3.55;;
26598;SDS011;14240;51.064;16.612;2023-04-25T09:39:47;6.03;;;2.90;;
26598;SDS011;14240;51.064;16.612;2023-04-25T09:42:15;6.13;;;2.78;;
26598;SDS011;14240;51.064;16.612;2023-04-25T09:44:42;3.63;;;2.67;;
26598;SDS011;14240;51.064;16.612;2023-04-25T09:47:10;4.18;;;2.80;;
26598;SDS011;14240;51.064;16.612;2023-04-25T09:49:38;6.78;;;4.38;;
26598;SDS011;14240;51.064;16.612;2023-04-25T09:52:06;5.53;;;2.60;;
26598;SDS011;14240;51.064;16.612;2023-04-25T09:54:32;7.05;;;2.72;;
26598;SDS011;14240;51.064;16.612;2023-04-25T09:56:57;12.88;;;3.90;;
26598;SDS011;14240;51.064;16.612;2023-04-25T09:59:35;5.35;;;3.47;;
26598;SDS011;14240;51.064;16.612;2023-04-25T10:02:04;5.00;;;3.05;;
26598;SDS011;14240;51.064;16.612;2023-04-25T10:04:33;5.57;;;3.28;;
26598;SDS011;14240;51.064;16.612;2023-04-25T10:07:01;4.45;;;2.40;;
26598;SDS011;14240;51.064;16.612;2023-04-25T10:09:30;5.88;;;2.95;;
26598;SDS011;14240;51.064;16.612;2023-04-25T10:11:59;4.95;;;2.85;;
26598;SDS011;14240;51.064;16.612;2023-04-25T10:14:25;8.32;;;3.60;;
26598;SDS011;14240;51.064;16.612;2023-04-25T10:16:51;7.80;;;2.72;;
26598;SDS011;14240;51.064;16.612;2023-04-25T10:19:21;3.50;;;2.40;;
26598;SDS011;14240;51.064;16.612;2023-04-25T10:22:01;5.53;;;2.45;;
26598;SDS011;14240;51.064;16.612;2023-04-25T10:24:28;9.90;;;3.00;;
26598;SDS011;14240;51.064;16.612;2023-04-25T10:26:53;4.70;;;2.40;;
26598;SDS011;14240;51.064;16.612;2023-04-25T10:29:21;4.97;;;2.40;;
26598;SDS011;14240;51.064;16.612;2023-04-25T10:31:51;6.25;;;3.13;;
26598;SDS011;14240;51.064;16.612;2023-04-25T10:34:17;3.42;;;2.17;;
26598;SDS011;14240;51.064;16.612;2023-04-25T10:36:48;4.30;;;2.97;;
26598;SDS011;14240;51.064;16.612;2023-04-25T10:39:26;4.60;;;3.00;;
26598;SDS011;14240;51.064;16.612;2023-04-25T10:41:53;8.75;;;3.58;;
26598;SDS011;14240;51.064;16.612;2023-04-25T10:44:22;6.22;;;3.50;;
26598;SDS011;14240;51.064;16.612;2023-04-25T10:46:51;7.43;;;3.80;;
26598;SDS011;14240;51.064;16.612;2023-04-25T10:49:36;10.30;;;3.13;;
26598;SDS011;14240;51.064;16.612;2023-04-25T10:54:55;5.03;;;2.13;;
26598;SDS011;14240;51.064;16.612;2023-04-25T10:57:29;6.05;;;2.97;;
26598;SDS011;14240;51.064;16.612;2023-04-25T11:00:01;7.90;;;3.70;;
26598;SDS011;14240;51.064;16.612;2023-04-25T11:02:30;7.78;;;3.45;;
26598;SDS011;14240;51.064;16.612;2023-04-25T11:04:56;4.07;;;3.05;;
26598;SDS011;14240;51.064;16.612;2023-04-25T11:07:24;5.43;;;2.70;;
26598;SDS011;14240;51.064;16.612;2023-04-25T11:09:59;3.95;;;2.70;;
26598;SDS011;14240;51.064;16.612;2023-04-25T11:12:29;5.13;;;2.53;;
26598;SDS011;14240;51.064;16.612;2023-04-25T11:15:03;10.05;;;3.50;;
26598;SDS011;14240;51.064;16.612;2023-04-25T11:17:30;5.25;;;3.15;;
26598;SDS011;14240;51.064;16.612;2023-04-25T11:19:56;4.50;;;2.50;;
26598;SDS011;14240;51.064;16.612;2023-04-25T11:22:22;5.28;;;2.60;;
26598;SDS011;14240;51.064;16.612;2023-04-25T11:24:48;3.83;;;2.42;;
26598;SDS011;14240;51.064;16.612;2023-04-25T11:27:14;4.82;;;2.63;;
26598;SDS011;14240;51.064;16.612;2023-04-25T11:29:40;5.13;;;2.60;;
26598;SDS011;14240;51.064;16.612;2023-04-25T11:32:06;5.35;;;2.58;;
26598;SDS011;14240;51.064;16.612;2023-04-25T11:34:32;9.02;;;3.20;;
26598;SDS011;14240;51.064;16.612;2023-04-25T11:36:59;6.25;;;2.60;;
26598;SDS011;14240;51.064;16.612;2023-04-25T11:41:53;5.70;;;2.97;;
26598;SDS011;14240;51.064;16.612;2023-04-25T11:44:19;3.15;;;2.35;;
26598;SDS011;14240;51.064;16.612;2023-04-25T11:46:46;2.78;;;2.35;;
26598;SDS011;14240;51.064;16.612;2023-04-25T11:49:12;4.53;;;3.05;;
26598;SDS011;14240;51.064;16.612;2023-04-25T11:51:39;3.95;;;2.50;;
26598;SDS011;14240;51.064;16.612;2023-04-25T11:54:06;4.70;;;2.38;;
26598;SDS011;14240;51.064;16.612;2023-04-25T11:56:32;3.53;;;2.38;;
26598;SDS011;14240;51.064;16.612;2023-04-25T11:58:58;2.85;;;2.42;;
26598;SDS011;14240;51.064;16.612;2023-04-25T12:01:28;6.63;;;2.67;;
26598;SDS011;14240;51.064;16.612;2023-04-25T12:03:55;5.85;;;2.70;;
26598;SDS011;14240;51.064;16.612;2023-04-25T12:06:25;4.05;;;2.80;;
26598;SDS011;14240;51.064;16.612;2023-04-25T12:08:59;5.50;;;2.80;;
26598;SDS011;14240;51.064;16.612;2023-04-25T12:11:26;4.97;;;3.45;;
26598;SDS011;14240;51.064;16.612;2023-04-25T12:13:52;3.33;;;2.60;;
26598;SDS011;14240;51.064;16.612;2023-04-25T12:16:18;3.50;;;2.13;;
26598;SDS011;14240;51.064;16.612;2023-04-25T12:18:44;5.53;;;2.83;;
26598;SDS011;14240;51.064;16.612;2023-04-25T12:21:10;4.95;;;2.75;;
26598;SDS011;14240;51.064;16.612;2023-04-25T12:23:38;3.10;;;2.22;;
26598;SDS011;14240;51.064;16.612;2023-04-25T12:26:04;2.97;;;2.53;;
26598;SDS011;14240;51.064;16.612;2023-04-25T12:28:31;3.33;;;2.65;;
26598;SDS011;14240;51.064;16.612;2023-04-25T12:31:04;5.75;;;2.85;;
26598;SDS011;14240;51.064;16.612;2023-04-25T12:33:34;5.22;;;3.83;;
26598;SDS011;14240;51.064;16.612;2023-04-25T12:36:02;5.03;;;2.60;;
26598;SDS011;14240;51.064;16.612;2023-04-25T12:38:35;6.70;;;3.05;;
26598;SDS011;14240;51.064;16.612;2023-04-25T12:41:02;4.32;;;2.72;;
26598;SDS011;14240;51.064;16.612;2023-04-25T12:43:28;5.43;;;3.00;;
26598;SDS011;14240;51.064;16.612;2023-04-25T12:45:54;2.67;;;2.47;;
26598;SDS011;14240;51.064;16.612;2023-04-25T12:48:21;4.75;;;2.67;;
26598;SDS011;14240;51.064;16.612;2023-04-25T12:50:48;4.10;;;2.97;;
26598;SDS011;14240;51.064;16.612;2023-04-25T12:53:18;4.30;;;3.10;;
26598;SDS011;14240;51.064;16.612;2023-04-25T12:55:46;4.80;;;2.83;;
26598;SDS011;14240;51.064;16.612;2023-04-25T12:58:15;8.75;;;3.45;;
26598;SDS011;14240;51.064;16.612;2023-04-25T13:00:42;5.82;;;2.83;;
26598;SDS011;14240;51.064;16.612;2023-04-25T13:03:08;4.32;;;3.22;;
26598;SDS011;14240;51.064;16.612;2023-04-25T13:05:35;7.07;;;2.97;;
26598;SDS011;14240;51.064;16.612;2023-04-25T13:08:01;3.85;;;2.75;;
26598;SDS011;14240;51.064;16.612;2023-04-25T13:10:27;4.43;;;2.88;;
26598;SDS011;14240;51.064;16.612;2023-04-25T13:12:53;5.70;;;3.10;;
26598;SDS011;14240;51.064;16.612;2023-04-25T13:15:19;6.95;;;2.50;;
26598;SDS011;14240;51.064;16.612;2023-04-25T13:17:45;4.63;;;2.63;;
26598;SDS011;14240;51.064;16.612;2023-04-25T13:20:11;5.18;;;2.70;;
26598;SDS011;14240;51.064;16.612;2023-04-25T13:22:38;4.70;;;2.80;;
26598;SDS011;14240;51.064;16.612;2023-04-25T13:25:05;4.25;;;2.88;;
26598;SDS011;14240;51.064;16.612;2023-04-25T13:27:32;6.00;;;3.05;;
26598;SDS011;14240;51.064;16.612;2023-04-25T13:30:03;5.40;;;2.60;;
26598;SDS011;14240;51.064;16.612;2023-04-25T13:32:33;4.28;;;2.50;;
26598;SDS011;14240;51.064;16.612;2023-04-25T13:35:00;5.18;;;2.55;;
26598;SDS011;14240;51.064;16.612;2023-04-25T13:37:27;4.13;;;2.88;;
26598;SDS011;14240;51.064;16.612;2023-04-25T13:39:54;8.18;;;2.92;;
26598;SDS011;14240;51.064;16.612;2023-04-25T13:42:21;4.70;;;2.38;;
26598;SDS011;14240;51.064;16.612;2023-04-25T13:44:48;4.15;;;2.33;;
26598;SDS011;14240;51.064;16.612;2023-04-25T13:47:13;2.65;;;2.20;;
26598;SDS011;14240;51.064;16.612;2023-04-25T13:49:39;7.47;;;2.63;;
26598;SDS011;14240;51.064;16.612;2023-04-25T13:52:05;3.53;;;2.80;;
26598;SDS011;14240;51.064;16.612;2023-04-25T13:54:31;4.88;;;2.42;;
26598;SDS011;14240;51.064;16.612;2023-04-25T13:56:57;5.18;;;2.67;;
26598;SDS011;14240;51.064;16.612;2023-04-25T13:59:24;4.32;;;3.05;;
26598;SDS011;14240;51.064;16.612;2023-04-25T14:01:50;4.50;;;2.65;;
26598;SDS011;14240;51.064;16.612;2023-04-25T14:04:16;3.95;;;3.08;;
26598;SDS011;14240;51.064;16.612;2023-04-25T14:06:42;5.18;;;2.55;;
26598;SDS011;14240;51.064;16.612;2023-04-25T14:09:08;4.00;;;2.50;;
26598;SDS011;14240;51.064;16.612;2023-04-25T14:11:38;4.05;;;2.33;;
26598;SDS011;14240;51.064;16.612;2023-04-25T14:14:04;3.97;;;2.55;;
26598;SDS011;14240;51.064;16.612;2023-04-25T14:16:30;5.93;;;3.10;;
26598;SDS011;14240;51.064;16.612;2023-04-25T14:18:57;3.90;;;2.60;;
26598;SDS011;14240;51.064;16.612;2023-04-25T14:21:23;3.88;;;2.30;;
26598;SDS011;14240;51.064;16.612;2023-04-25T14:23:49;4.93;;;2.63;;
26598;SDS011;14240;51.064;16.612;2023-04-25T14:26:15;6.78;;;2.20;;
26598;SDS011;14240;51.064;16.612;2023-04-25T14:28:41;4.55;;;2.60;;
26598;SDS011;14240;51.064;16.612;2023-04-25T14:31:07;3.47;;;2.22;;
26598;SDS011;14240;51.064;16.612;2023-04-25T14:33:33;3.67;;;2.38;;
26598;SDS011;14240;51.064;16.612;2023-04-25T14:35:59;4.97;;;2.45;;
26598;SDS011;14240;51.064;16.612;2023-04-25T14:38:25;5.28;;;2.85;;